Neal Savage — WDG2633 — position and weather

sailwx.info

Track history (hours):
 
Tides and Currents Weather Stations Pressure Air Temp Water Temp Dewpoint Dewpoint Depression Visibility Wind Speed Wind Dir Waves Ship Positions

Neal Savage

Owner: Savage Inland Marine, Gibson, LA. More information available from US FCC via Universal Licensing System and Coast Guard Vessel Documentation Center.

Last reported at 2018-Jan-11 21:32 UTC. Time now 2018-Jan-19 01:23 UTC.
Position N 32°37' W 091°09'.

Length 29 m; draft 3.3 m.

Type: Towing. MMSI: 367517630.

Date/timePositionNaut miles runAvg speedWind from/ knotsBaromVisibWave heightAir tempDewpointWater temp
2018-Jan-11 21:32N 32°37' W 091°09'0 4.9
2018-Jan-11 21:29N 32°37' W 091°09'2 5.0
2018-Jan-11 21:00N 32°35' W 091°07'2 4.8
2018-Jan-11 20:30N 32°33' W 091°06'2 5.0
2018-Jan-11 20:00N 32°30' W 091°07'3 5.2
2018-Jan-11 19:30N 32°28' W 091°06'3 5.5
2018-Jan-11 19:00N 32°26' W 091°03'3 5.3
2018-Jan-11 18:30N 32°26' W 091°00'2 4.5
2018-Jan-11 18:00N 32°23' W 090°60'2 4.4
2018-Jan-11 17:30N 32°21' W 090°60'3 5.7
2018-Jan-11 17:00N 32°21' W 090°56'2 4.5
2018-Jan-11 16:30N 32°20' W 090°54'2 3.2
2018-Jan-11 16:00N 32°18' W 090°55'0 0.1
2018-Jan-11 15:30N 32°18' W 090°55'0 0.0
2018-Jan-11 15:00N 32°18' W 090°55'0 0.0
2018-Jan-11 14:30N 32°18' W 090°55'0 0.0
2018-Jan-11 14:00N 32°18' W 090°55'0 0.0
2018-Jan-11 13:30N 32°18' W 090°55'0 0.0
2018-Jan-11 13:00N 32°18' W 090°55'0 0.0
2018-Jan-11 12:30N 32°18' W 090°55'0 0.0
2018-Jan-11 12:00N 32°18' W 090°55'0 0.1
2018-Jan-11 11:30N 32°18' W 090°55'0 0.3
2018-Jan-11 11:00N 32°18' W 090°55'0 0.0
2018-Jan-11 10:30N 32°18' W 090°55'0 0.0
2018-Jan-11 10:00N 32°18' W 090°55'0 0.0
2018-Jan-11 09:30N 32°18' W 090°55'0 0.0
2018-Jan-11 09:00N 32°18' W 090°55'0 0.0
2018-Jan-11 08:30N 32°18' W 090°55'0 0.0
2018-Jan-11 08:00N 32°18' W 090°55'0 0.0
2018-Jan-11 07:30N 32°18' W 090°55'0 0.0
2018-Jan-11 07:00N 32°18' W 090°55'0 0.0
2018-Jan-11 06:30N 32°18' W 090°55'0 0.0
2018-Jan-11 06:00N 32°18' W 090°55'0 0.0
2018-Jan-11 05:30N 32°18' W 090°55'0 0.0
2018-Jan-11 05:00N 32°18' W 090°55'0 0.0
2018-Jan-11 04:30N 32°18' W 090°55'0 0.0
2018-Jan-11 04:00N 32°18' W 090°55'2 4.4
2018-Jan-11 03:30N 32°17' W 090°57'2 4.4
2018-Jan-11 03:00N 32°15' W 090°59'2 4.7
2018-Jan-11 02:30N 32°13' W 090°59'2 4.7
2018-Jan-11 02:00N 32°10' W 090°60'2 4.7
2018-Jan-11 01:29N 32°08' W 091°00'2 4.5
2018-Jan-11 01:00N 32°07' W 091°03'1 2.9
2018-Jan-11 00:30N 32°08' W 091°05'1 2.0
2018-Jan-11 00:00N 32°08' W 091°06'5 2.3
2018-Jan-10 21:53N 32°04' W 091°03'1 2.9
2018-Jan-10 21:29N 32°02' W 091°04'2 3.1
2018-Jan-10 21:00N 32°01' W 091°05'1 0.4
2018-Jan-10 17:29N 31°60' W 091°05'  
2018-Jan-06 08:20N 29°35' W 090°23'2 4.6
2018-Jan-06 07:58N 29°33' W 090°23'3 6.5
2018-Jan-06 07:30N 29°33' W 090°27'3 6.3
2018-Jan-06 07:00N 29°34' W 090°30'3 6.2
2018-Jan-06 06:30N 29°34' W 090°34'2 3.3
2018-Jan-06 06:00N 29°35' W 090°36'2 4.6
2018-Jan-06 05:30N 29°35' W 090°38'3 5.4
2018-Jan-06 05:00N 29°36' W 090°41'2 3.7
2018-Jan-06 04:30N 29°35' W 090°43'3 5.2
2018-Jan-06 04:00N 29°33' W 090°45'2 4.8
2018-Jan-06 03:30N 29°32' W 090°47'3 5.2
2018-Jan-06 03:00N 29°32' W 090°50'61 5.3
2018-Jan-05 15:23N 29°50' W 091°58'2 6.6
2018-Jan-05 15:00N 29°50' W 092°01'4 7.2
2018-Jan-05 14:29N 29°48' W 092°05'3 6.9
2018-Jan-05 14:00N 29°47' W 092°08'3 6.2
2018-Jan-05 13:30N 29°47' W 092°12'2 3.8
2018-Jan-05 13:00N 29°48' W 092°14'3 6.2
2018-Jan-05 12:30N 29°49' W 092°17'3 5.9
2018-Jan-05 12:00N 29°51' W 092°20'2 0.3
2018-Jan-05 05:04N 29°52' W 092°22'0 5.6
2018-Jan-05 04:59N 29°51' W 092°22'3 5.7
2018-Jan-05 04:30N 29°50' W 092°19'2 4.9
2018-Jan-05 04:00N 29°49' W 092°17'3 5.6
2018-Jan-05 03:30N 29°48' W 092°14'1 2.8
2018-Jan-05 03:00N 29°47' W 092°12'1 1.5
2018-Jan-05 02:30N 29°47' W 092°11'0 0.6
2018-Jan-05 02:00N 29°47' W 092°11'2 3.1
2018-Jan-05 01:30N 29°47' W 092°09'1 2.8
2018-Jan-05 01:00N 29°47' W 092°08'2 3.0
2018-Jan-05 00:30N 29°48' W 092°06'3 5.0
2018-Jan-05 00:00N 29°49' W 092°03'2 4.8
2018-Jan-04 23:30N 29°49' W 092°01'3 5.0
2018-Jan-04 23:00N 29°50' W 091°58'  
Track history (hours):
 
Tides and Currents Weather Stations Pressure Air Temp Water Temp Dewpoint Dewpoint Depression Visibility Wind Speed Wind Dir Waves Ship Positions

Neal Savage

Owner: Savage Inland Marine, Gibson, LA. More information available from US FCC via Universal Licensing System and Coast Guard Vessel Documentation Center.

Last reported at 2018-Jan-11 21:32 UTC. Time now 2018-Jan-19 01:23 UTC.
Position N 32°37' W 091°09'.

Length 29 m; draft 3.3 m.

Type: Towing. MMSI: 367517630.

Date/timePositionNaut miles runAvg speedWind from/ knotsBaromVisibWave heightAir tempDewpointWater temp
2018-Jan-11 21:32N 32°37' W 091°09'0 4.9
2018-Jan-11 21:29N 32°37' W 091°09'2 5.0
2018-Jan-11 21:00N 32°35' W 091°07'2 4.8
2018-Jan-11 20:30N 32°33' W 091°06'2 5.0
2018-Jan-11 20:00N 32°30' W 091°07'3 5.2
2018-Jan-11 19:30N 32°28' W 091°06'3 5.5
2018-Jan-11 19:00N 32°26' W 091°03'3 5.3
2018-Jan-11 18:30N 32°26' W 091°00'2 4.5
2018-Jan-11 18:00N 32°23' W 090°60'2 4.4
2018-Jan-11 17:30N 32°21' W 090°60'3 5.7
2018-Jan-11 17:00N 32°21' W 090°56'2 4.5
2018-Jan-11 16:30N 32°20' W 090°54'2 3.2
2018-Jan-11 16:00N 32°18' W 090°55'0 0.1
2018-Jan-11 15:30N 32°18' W 090°55'0 0.0
2018-Jan-11 15:00N 32°18' W 090°55'0 0.0
2018-Jan-11 14:30N 32°18' W 090°55'0 0.0
2018-Jan-11 14:00N 32°18' W 090°55'0 0.0
2018-Jan-11 13:30N 32°18' W 090°55'0 0.0
2018-Jan-11 13:00N 32°18' W 090°55'0 0.0
2018-Jan-11 12:30N 32°18' W 090°55'0 0.0
2018-Jan-11 12:00N 32°18' W 090°55'0 0.1
2018-Jan-11 11:30N 32°18' W 090°55'0 0.3
2018-Jan-11 11:00N 32°18' W 090°55'0 0.0
2018-Jan-11 10:30N 32°18' W 090°55'0 0.0
2018-Jan-11 10:00N 32°18' W 090°55'0 0.0
2018-Jan-11 09:30N 32°18' W 090°55'0 0.0
2018-Jan-11 09:00N 32°18' W 090°55'0 0.0
2018-Jan-11 08:30N 32°18' W 090°55'0 0.0
2018-Jan-11 08:00N 32°18' W 090°55'0 0.0
2018-Jan-11 07:30N 32°18' W 090°55'0 0.0
2018-Jan-11 07:00N 32°18' W 090°55'0 0.0
2018-Jan-11 06:30N 32°18' W 090°55'0 0.0
2018-Jan-11 06:00N 32°18' W 090°55'0 0.0
2018-Jan-11 05:30N 32°18' W 090°55'0 0.0
2018-Jan-11 05:00N 32°18' W 090°55'0 0.0
2018-Jan-11 04:30N 32°18' W 090°55'0 0.0
2018-Jan-11 04:00N 32°18' W 090°55'2 4.4
2018-Jan-11 03:30N 32°17' W 090°57'2 4.4
2018-Jan-11 03:00N 32°15' W 090°59'2 4.7
2018-Jan-11 02:30N 32°13' W 090°59'2 4.7
2018-Jan-11 02:00N 32°10' W 090°60'2 4.7
2018-Jan-11 01:29N 32°08' W 091°00'2 4.5
2018-Jan-11 01:00N 32°07' W 091°03'1 2.9
2018-Jan-11 00:30N 32°08' W 091°05'1 2.0
2018-Jan-11 00:00N 32°08' W 091°06'5 2.3
2018-Jan-10 21:53N 32°04' W 091°03'1 2.9
2018-Jan-10 21:29N 32°02' W 091°04'2 3.1
2018-Jan-10 21:00N 32°01' W 091°05'1 0.4
2018-Jan-10 17:29N 31°60' W 091°05'  
2018-Jan-06 08:20N 29°35' W 090°23'2 4.6
2018-Jan-06 07:58N 29°33' W 090°23'3 6.5
2018-Jan-06 07:30N 29°33' W 090°27'3 6.3
2018-Jan-06 07:00N 29°34' W 090°30'3 6.2
2018-Jan-06 06:30N 29°34' W 090°34'2 3.3
2018-Jan-06 06:00N 29°35' W 090°36'2 4.6
2018-Jan-06 05:30N 29°35' W 090°38'3 5.4
2018-Jan-06 05:00N 29°36' W 090°41'2 3.7
2018-Jan-06 04:30N 29°35' W 090°43'3 5.2
2018-Jan-06 04:00N 29°33' W 090°45'2 4.8
2018-Jan-06 03:30N 29°32' W 090°47'3 5.2
2018-Jan-06 03:00N 29°32' W 090°50'61 5.3
2018-Jan-05 15:23N 29°50' W 091°58'2 6.6
2018-Jan-05 15:00N 29°50' W 092°01'4 7.2
2018-Jan-05 14:29N 29°48' W 092°05'3 6.9
2018-Jan-05 14:00N 29°47' W 092°08'3 6.2
2018-Jan-05 13:30N 29°47' W 092°12'2 3.8
2018-Jan-05 13:00N 29°48' W 092°14'3 6.2
2018-Jan-05 12:30N 29°49' W 092°17'3 5.9
2018-Jan-05 12:00N 29°51' W 092°20'2 0.3
2018-Jan-05 05:04N 29°52' W 092°22'0 5.6
2018-Jan-05 04:59N 29°51' W 092°22'3 5.7
2018-Jan-05 04:30N 29°50' W 092°19'2 4.9
2018-Jan-05 04:00N 29°49' W 092°17'3 5.6
2018-Jan-05 03:30N 29°48' W 092°14'1 2.8
2018-Jan-05 03:00N 29°47' W 092°12'1 1.5
2018-Jan-05 02:30N 29°47' W 092°11'0 0.6
2018-Jan-05 02:00N 29°47' W 092°11'2 3.1
2018-Jan-05 01:30N 29°47' W 092°09'1 2.8
2018-Jan-05 01:00N 29°47' W 092°08'2 3.0
2018-Jan-05 00:30N 29°48' W 092°06'3 5.0
2018-Jan-05 00:00N 29°49' W 092°03'2 4.8
2018-Jan-04 23:30N 29°49' W 092°01'3 5.0
2018-Jan-04 23:00N 29°50' W 091°58'  

Dump ship's entire track history